Roberts, MT (59070)

12:51 PM MDT on May 06, 2015 (GMT -0600)
Clear Creek Rd, Roberts, MT | | Change Station
CLOSE
Current Station
Personal Weather Station
Location: Roberts, MT
Elevation: 4455 ft
Nearby Weather Stations

Elev 4455 ft 45.38 °N, 109.14 °W | Updated 1 minute ago

Overcast
Overcast
48.9 °F
Feels Like 49 °F
N
2.0
Wind Variable Wind from NNW
Gusts 2.5 mph

Today
High -- | Low -- °F
--% Chance of Precip.
Yesterday
High -- | Low -- °F
Precip. -- in
5:58 AM 8:29 PM
Waning Gibbous, 93% visible
Pressure 29.87 in
Visibility 10.0 miles
Clouds Few 4000 ft
Mostly Cloudy 5000 ft
Overcast 7000 ft
Windchill 49 °F
Dew Point 37 °F
Humidity 64%
Rainfall 0.04 in
Snow Depth Not available.
UV 2.0 out of 12
Pollen 7.00 out of 12
Air Quality Not available.
Flu Activity Local Activity
METAR KBIL 061753Z 01006KT 10SM FEW040 BKN050 OVC070 11/01 A2989 RMK AO2 SLP114 SHRA DSNT S 60001 T01110011 10111 20089 51014

More Conditions Fewer Conditions

Pressure 29.87 in
Visibility 10.0 miles
Clouds Few 4000 ft
Mostly Cloudy 5000 ft
Overcast 7000 ft
Windchill 49 °F
Dew Point 37 °F
Humidity 64%
Rainfall 0.04 in
Snow Depth Not available.
UV 2.0 out of 12
Pollen 7.00 out of 12
Air Quality Not available.
Flu Activity Local Activity
METAR KBIL 061753Z 01006KT 10SM FEW040 BKN050 OVC070 11/01 A2989 RMK AO2 SLP114 SHRA DSNT S 60001 T01110011 10111 20089 51014

More Conditions Fewer Conditions

10-Day Weather Forecast

Almanac

Astronomy

May. 06, 2015 Rise Set
Actual Time
Civil Twilight
Nautical Twilight
Astronomical Twilight
Moon
Length of Visible Light
Length of Day
Tomorrow will be .
, % of the Moon is Illuminated

Today's Extremes

State Highs State Lows

Community

WunderPhotos

Upload Photos

1,818,990 photos uploaded!

WunderBlogs® & News

Nearby

Air Quality

  Air Quality AQ Index Pollutant
Not available.

Snow Depth

Station Depth Elevation

Earthquake Activity

City Distance Mag. Time & Date
Minimum magnitude displayed is 2.5.

Coastal Water Temperatures

Place Temperature

Stations

Nearby Weather Stations

Station Location Temp. Windchill Dew Point Humidity Wind Precip. Elev Updated Type